Malczyce, Poland
Current Conditions -  °F | °C
As of 9:30 PM on Thursday 23 Oct 2014 (Local Time) from EPWR Reporting Station
Overcast Overcast  
Wind Chill: 41°   Ceiling: 800
Heat Index: 45°   Visibility: 4mi
Dew Point: 43°   Wind: 6mph
Humidity: 93%   Direction: 30°NNE
Pressure: 30.21"   Gusts: NA
Location:  51.22°N, 16.48°E
Report Text: EPWR 231930Z 03005KT 350V050 7000 OVC008 07/06 Q1023
Loading
Personal Weather Stations






























Interactive Weather Map
Tropical Storm Tracking
New forecast layout! Learn more

10-Day Weather Forecast

Advertisements
Track Severe Weather on mobile